Time;durP1;ratioP1;P1;durP2;ratioP2;P2;SDS_P1;SDS_P2;PMS_P1;PMS_P2;Temp;Humidity;BMP_temperature;BMP_pressure;BME280_temperature;BME280_humidity;BME280_pressure;Samples;Min_cycle;Max_cycle;Signal;HPM_P1;HPM_P2
2023/06/20 00:28:56;;;;;;;13.43;7.43;;;;;;;;;;5031232;28;20052;-78
2023/06/20 04:35:57;;;;;;;15.65;10.32;;;;;;;;;;5085145;22;20047;-81
2023/06/20 04:38:41;;;;;;;14.88;9.60;;;;;;;;;;5052744;23;20425;-80
2023/06/20 04:41:11;;;;;;;14.68;9.73;;;;;;;;;;5015574;28;20041;-80
2023/06/20 04:43:38;;;;;;;18.13;9.85;;;;;;;;;;5035962;28;20192;-78
2023/06/20 04:46:06;;;;;;;13.45;9.82;;;;;;;;;;5057223;28;20049;-83
2023/06/20 04:48:36;;;;;;;14.90;9.60;;;;;;;;;;5058071;28;20108;-78
2023/06/20 04:51:07;;;;;;;16.45;9.60;;;;;;;;;;5046619;28;20524;-80
2023/06/20 04:53:39;;;;;;;13.55;9.05;;;;;;;;;;5069862;28;20049;-80
2023/06/20 04:56:07;;;;;;;18.38;10.13;;;;;;;;;;5047492;28;20100;-82
2023/06/20 04:58:33;;;;;;;17.45;9.98;;;;;;;;;;5047402;28;20115;-81
2023/06/20 05:01:00;;;;;;;19.35;10.23;;;;;;;;;;5049288;28;20400;-81
2023/06/20 05:03:27;;;;;;;13.68;9.07;;;;;;;;;;5063264;28;20460;-81
2023/06/20 05:05:54;;;;;;;13.32;9.23;;;;;;;;;;5044216;28;20053;-81
2023/06/20 05:08:21;;;;;;;16.35;9.95;;;;;;;;;;5022350;28;20122;-81
2023/06/20 05:10:51;;;;;;;13.25;8.68;;;;;;;;;;5034756;28;20045;-82
2023/06/20 05:13:17;;;;;;;12.73;9.20;;;;;;;;;;5034817;28;20049;-81
2023/06/20 05:15:47;;;;;;;13.50;9.07;;;;;;;;;;5035662;28;20067;-80
2023/06/20 05:18:14;;;;;;;18.90;9.93;;;;;;;;;;5034701;28;20113;-81
2023/06/20 05:20:41;;;;;;;13.30;9.07;;;;;;;;;;5051737;28;20721;-82
2023/06/20 05:23:11;;;;;;;13.23;8.93;;;;;;;;;;5037058;28;20555;-82
2023/06/20 05:25:37;;;;;;;14.80;9.20;;;;;;;;;;5034848;28;20497;-83
2023/06/20 05:28:04;;;;;;;13.25;9.05;;;;;;;;;;5038253;28;20045;-84
2023/06/20 05:30:32;;;;;;;12.50;8.82;;;;;;;;;;5040107;28;20148;-81
2023/06/20 05:32:59;;;;;;;17.45;9.23;;;;;;;;;;5038735;28;20061;-82
2023/06/20 05:35:25;;;;;;;12.05;8.85;;;;;;;;;;5033242;28;20056;-81
2023/06/20 05:37:52;;;;;;;14.35;8.43;;;;;;;;;;5047879;28;20112;-81
2023/06/20 05:40:19;;;;;;;19.38;10.27;;;;;;;;;;5040375;28;20095;-81
2023/06/20 05:42:45;;;;;;;13.60;9.10;;;;;;;;;;5049020;28;20402;-83
2023/06/20 05:45:12;;;;;;;12.23;8.45;;;;;;;;;;5052071;28;20063;-81
2023/06/20 05:47:38;;;;;;;13.25;8.23;;;;;;;;;;5033335;28;20409;-83
2023/06/20 05:50:05;;;;;;;10.93;8.55;;;;;;;;;;5046929;28;20072;-81
2023/06/20 05:52:35;;;;;;;10.75;8.25;;;;;;;;;;5048114;28;20037;-81
2023/06/20 05:55:05;;;;;;;13.50;8.85;;;;;;;;;;5064333;28;20068;-81
2023/06/20 05:57:32;;;;;;;11.50;8.38;;;;;;;;;;5048104;28;20077;-81
2023/06/20 05:59:58;;;;;;;13.07;7.82;;;;;;;;;;5029221;28;20037;-81
2023/06/20 06:02:26;;;;;;;15.93;8.85;;;;;;;;;;5030804;28;20053;-82
2023/06/20 06:04:53;;;;;;;18.08;8.63;;;;;;;;;;5029808;28;20133;-81
2023/06/20 06:07:19;;;;;;;12.18;7.82;;;;;;;;;;5044637;28;20049;-82
2023/06/20 06:09:47;;;;;;;18.25;7.93;;;;;;;;;;5010326;28;20053;-81
2023/06/20 06:12:14;;;;;;;11.52;7.68;;;;;;;;;;5008400;28;20056;-82
2023/06/20 06:14:40;;;;;;;16.05;7.97;;;;;;;;;;4999000;28;20464;-82
2023/06/20 06:17:08;;;;;;;11.93;8.57;;;;;;;;;;5027458;28;20515;-82
2023/06/20 06:19:35;;;;;;;13.00;7.78;;;;;;;;;;5028467;28;20053;-82
2023/06/20 06:22:06;;;;;;;13.57;8.40;;;;;;;;;;5011995;28;20049;-82
2023/06/20 06:24:32;;;;;;;14.30;8.15;;;;;;;;;;5030566;28;20156;-83
2023/06/20 06:26:59;;;;;;;12.82;8.13;;;;;;;;;;5031606;28;20049;-82
2023/06/20 06:29:27;;;;;;;11.05;6.57;;;;;;;;;;5041328;28;20042;-79
2023/06/20 06:31:54;;;;;;;9.52;6.78;;;;;;;;;;5015548;28;20054;-80
2023/06/20 06:34:21;;;;;;;10.82;6.80;;;;;;;;;;5027352;28;20092;-81
2023/06/20 06:36:49;;;;;;;10.95;7.45;;;;;;;;;;5029088;28;20057;-80
2023/06/20 06:39:17;;;;;;;10.02;6.60;;;;;;;;;;5027730;28;20049;-80
2023/06/20 06:41:46;;;;;;;12.68;7.20;;;;;;;;;;5008863;28;20042;-79
2023/06/20 06:44:13;;;;;;;10.02;6.65;;;;;;;;;;5025832;28;20080;-79
2023/06/20 06:46:39;;;;;;;11.38;7.20;;;;;;;;;;5029282;28;20428;-81
2023/06/20 06:49:06;;;;;;;8.98;6.65;;;;;;;;;;5029561;28;20077;-79
2023/06/20 06:51:33;;;;;;;9.32;6.90;;;;;;;;;;5029127;28;20069;-79
2023/06/20 06:54:00;;;;;;;9.07;6.97;;;;;;;;;;5029851;28;20446;-81
2023/06/20 06:56:26;;;;;;;11.25;7.38;;;;;;;;;;5038783;28;20052;-79
2023/06/20 06:59:00;;;;;;;8.30;6.70;;;;;;;;;;5050969;28;20059;-80
2023/06/20 07:01:28;;;;;;;11.13;6.97;;;;;;;;;;5057282;28;20045;-79
2023/06/20 07:03:55;;;;;;;8.65;6.70;;;;;;;;;;5038743;28;20049;-81
2023/06/20 07:06:22;;;;;;;11.50;6.72;;;;;;;;;;5055992;28;20049;-79
2023/06/20 07:08:49;;;;;;;9.82;7.38;;;;;;;;;;5037325;28;20045;-79
2023/06/20 07:11:17;;;;;;;12.43;7.38;;;;;;;;;;5038771;28;20049;-81
2023/06/20 07:13:43;;;;;;;14.02;7.68;;;;;;;;;;5054486;28;20451;-82
2023/06/20 07:16:10;;;;;;;17.13;8.25;;;;;;;;;;5054654;28;20050;-81
2023/06/20 07:18:43;;;;;;;14.00;8.23;;;;;;;;;;5051315;28;20036;-81
2023/06/20 07:21:10;;;;;;;16.25;8.90;;;;;;;;;;5065194;28;20571;-83
2023/06/20 07:23:36;;;;;;;14.02;8.85;;;;;;;;;;5050990;28;20136;-80
2023/06/20 07:26:03;;;;;;;10.50;7.97;;;;;;;;;;5047971;28;20049;-79
2023/06/20 07:28:30;;;;;;;15.95;8.05;;;;;;;;;;5051889;28;20068;-80
2023/06/20 07:30:56;;;;;;;12.77;8.57;;;;;;;;;;5034153;28;20041;-82
2023/06/20 07:33:23;;;;;;;11.32;7.82;;;;;;;;;;5031175;28;20041;-81
2023/06/20 07:35:50;;;;;;;13.48;8.13;;;;;;;;;;5045759;28;20055;-81
2023/06/20 07:38:16;;;;;;;11.25;8.25;;;;;;;;;;5030132;28;20064;-82
2023/06/20 07:40:45;;;;;;;12.38;7.97;;;;;;;;;;5030544;28;20429;-80
2023/06/20 07:43:12;;;;;;;9.88;7.68;;;;;;;;;;5029350;28;20064;-81
2023/06/20 07:45:39;;;;;;;11.02;8.00;;;;;;;;;;5048156;28;20044;-82
2023/06/20 07:48:06;;;;;;;13.93;7.95;;;;;;;;;;5034641;28;20094;-81
2023/06/20 07:50:33;;;;;;;11.38;7.63;;;;;;;;;;5033338;28;20331;-81
2023/06/20 07:53:00;;;;;;;13.57;8.35;;;;;;;;;;5058764;28;20072;-82
2023/06/20 07:55:26;;;;;;;12.10;8.13;;;;;;;;;;5057539;28;20041;-82
2023/06/20 07:57:57;;;;;;;11.55;8.20;;;;;;;;;;5058456;28;20041;-82
2023/06/20 08:00:25;;;;;;;11.00;7.57;;;;;;;;;;5048845;28;20148;-81
2023/06/20 08:02:52;;;;;;;11.55;7.60;;;;;;;;;;5055822;28;20052;-82
2023/06/20 08:05:19;;;;;;;15.77;7.90;;;;;;;;;;5058532;28;20336;-81
2023/06/20 08:07:45;;;;;;;94.30;10.63;;;;;;;;;;5050676;28;20041;-81
2023/06/20 08:10:16;;;;;;;9.73;7.60;;;;;;;;;;5063658;28;20607;-82
2023/06/20 08:12:42;;;;;;;10.18;7.80;;;;;;;;;;5039631;28;20059;-82
2023/06/20 08:15:12;;;;;;;9.30;7.45;;;;;;;;;;5049839;28;20076;-80
2023/06/20 08:17:38;;;;;;;11.80;8.05;;;;;;;;;;5055064;28;20049;-81
2023/06/20 08:20:06;;;;;;;11.23;7.20;;;;;;;;;;5043944;28;20381;-81
2023/06/20 08:22:33;;;;;;;10.00;7.57;;;;;;;;;;5040761;28;20136;-81
2023/06/20 08:25:00;;;;;;;12.48;7.57;;;;;;;;;;5043051;28;20052;-80
2023/06/20 08:27:26;;;;;;;14.48;8.48;;;;;;;;;;5052960;28;20133;-81
2023/06/20 08:29:53;;;;;;;14.95;8.98;;;;;;;;;;5040801;28;20057;-82
2023/06/20 08:32:20;;;;;;;15.77;8.07;;;;;;;;;;5046086;28;20133;-80
2023/06/20 08:34:49;;;;;;;13.27;8.32;;;;;;;;;;5062165;28;20037;-80
2023/06/20 08:37:22;;;;;;;11.20;8.90;;;;;;;;;;5078304;28;20037;-82
2023/06/20 08:39:49;;;;;;;10.80;7.88;;;;;;;;;;5052189;28;20063;-81
2023/06/20 08:42:15;;;;;;;13.60;8.13;;;;;;;;;;5069621;28;20088;-81
2023/06/20 08:44:42;;;;;;;11.43;8.00;;;;;;;;;;5048716;28;20128;-81
2023/06/20 08:47:24;;;;;;;10.00;6.78;;;;;;;;;;5058557;28;20091;-81
2023/06/20 08:49:51;;;;;;;8.93;7.72;;;;;;;;;;5047691;28;20449;-79
2023/06/20 08:52:21;;;;;;;10.27;8.18;;;;;;;;;;5035828;28;20041;-82
2023/06/20 08:54:48;;;;;;;11.55;8.68;;;;;;;;;;5057350;28;20045;-82
2023/06/20 08:57:17;;;;;;;9.85;8.10;;;;;;;;;;5046488;28;20144;-80
2023/06/20 08:59:44;;;;;;;12.35;8.02;;;;;;;;;;5059548;28;20055;-82
2023/06/20 09:02:11;;;;;;;10.50;7.40;;;;;;;;;;5046016;28;20042;-82
2023/06/20 09:04:38;;;;;;;9.88;7.40;;;;;;;;;;5060090;28;20045;-80
2023/06/20 09:07:17;;;;;;;13.10;7.82;;;;;;;;;;5042263;28;20045;-82
2023/06/20 09:09:44;;;;;;;8.63;7.43;;;;;;;;;;5043386;28;20099;-80
2023/06/20 09:12:11;;;;;;;11.82;7.97;;;;;;;;;;5036153;28;20041;-82
2023/06/20 09:14:37;;;;;;;8.07;6.95;;;;;;;;;;5034403;28;20033;-81
2023/06/20 09:17:04;;;;;;;9.60;7.50;;;;;;;;;;5033792;28;20045;-81
2023/06/20 09:19:40;;;;;;;8.00;6.90;;;;;;;;;;5050050;28;20042;-81
2023/06/20 09:22:07;;;;;;;10.65;6.93;;;;;;;;;;5030805;28;20156;-79
2023/06/20 09:24:42;;;;;;;8.73;7.00;;;;;;;;;;5032145;28;20042;-81
2023/06/20 09:27:09;;;;;;;10.27;7.72;;;;;;;;;;5031548;28;20158;-79
2023/06/20 09:29:50;;;;;;;10.82;7.55;;;;;;;;;;5047845;28;20662;-80
2023/06/20 09:32:20;;;;;;;10.60;7.75;;;;;;;;;;5033046;28;20053;-81
2023/06/20 09:34:49;;;;;;;10.70;7.43;;;;;;;;;;5031848;28;20045;-82
2023/06/20 09:37:17;;;;;;;8.48;6.85;;;;;;;;;;5034538;28;20045;-81
2023/06/20 09:39:44;;;;;;;9.40;7.70;;;;;;;;;;5031076;28;20045;-80
2023/06/20 09:42:12;;;;;;;10.57;7.10;;;;;;;;;;5030109;28;20045;-82
2023/06/20 09:44:40;;;;;;;12.45;6.88;;;;;;;;;;5031237;28;20413;-82
2023/06/20 09:47:07;;;;;;;11.38;7.35;;;;;;;;;;5031234;28;20132;-80
2023/06/20 09:49:35;;;;;;;10.35;7.05;;;;;;;;;;5030768;28;20065;-81
2023/06/20 09:52:04;;;;;;;9.60;7.10;;;;;;;;;;5030516;28;20045;-81
2023/06/20 09:54:39;;;;;;;9.20;6.90;;;;;;;;;;5050117;28;20045;-82
2023/06/20 09:57:06;;;;;;;;;;;;;;;;;;5066567;28;20049;-82
2023/06/20 09:59:34;;;;;;;9.02;7.50;;;;;;;;;;5066405;28;19920;-83
2023/06/20 10:02:02;;;;;;;9.90;7.35;;;;;;;;;;5065155;28;20606;-82
2023/06/20 10:04:30;;;;;;;9.18;7.60;;;;;;;;;;5065310;28;20076;-81
2023/06/20 10:07:00;;;;;;;11.18;7.18;;;;;;;;;;5050476;28;20052;-80
2023/06/20 10:09:27;;;;;;;10.63;7.57;;;;;;;;;;5049373;28;20452;-81
2023/06/20 10:11:54;;;;;;;10.70;7.85;;;;;;;;;;5049242;28;20503;-81
2023/06/20 10:14:21;;;;;;;11.43;7.85;;;;;;;;;;5067636;28;20052;-81
2023/06/20 10:16:51;;;;;;;13.25;7.60;;;;;;;;;;5035135;28;20061;-81
2023/06/20 10:19:18;;;;;;;8.85;7.05;;;;;;;;;;5028356;28;20069;-81
2023/06/20 10:21:59;;;;;;;9.10;7.22;;;;;;;;;;5030390;28;20067;-80
2023/06/20 10:24:27;;;;;;;9.73;6.90;;;;;;;;;;5027150;28;20053;-79
2023/06/20 10:26:55;;;;;;;15.68;7.03;;;;;;;;;;5027156;28;20428;-81
2023/06/20 10:29:22;;;;;;;12.70;7.10;;;;;;;;;;5029475;28;20500;-81
2023/06/20 10:31:54;;;;;;;11.25;7.88;;;;;;;;;;5045515;28;20041;-80
2023/06/20 10:34:35;;;;;;;12.73;8.43;;;;;;;;;;5034024;28;20042;-78
2023/06/20 10:37:35;;;;;;;10.23;7.93;;;;;;;;;;5055302;28;20045;-78
2023/06/20 10:40:05;;;;;;;10.57;7.72;;;;;;;;;;5043359;28;20041;-80
2023/06/20 10:42:41;;;;;;;10.15;7.85;;;;;;;;;;5025357;28;20428;-79
2023/06/20 10:45:18;;;;;;;8.70;7.22;;;;;;;;;;5028946;28;20033;-79
2023/06/20 10:47:45;;;;;;;9.43;6.50;;;;;;;;;;5028832;28;20043;-79
2023/06/20 10:50:15;;;;;;;9.52;6.47;;;;;;;;;;5029242;28;20085;-79
2023/06/20 10:52:42;;;;;;;8.18;6.65;;;;;;;;;;5028731;28;20049;-81
2023/06/20 10:55:09;;;;;;;11.68;7.00;;;;;;;;;;5029019;28;20053;-81
2023/06/20 10:57:42;;;;;;;10.00;6.80;;;;;;;;;;5026237;28;20053;-80
2023/06/20 11:00:13;;;;;;;9.77;6.57;;;;;;;;;;5020746;28;20405;-80
2023/06/20 11:02:40;;;;;;;7.03;6.05;;;;;;;;;;5030039;28;20545;-79
2023/06/20 11:05:09;;;;;;;9.23;6.25;;;;;;;;;;5029254;28;20091;-79
2023/06/20 11:07:49;;;;;;;9.13;6.22;;;;;;;;;;5026932;28;20053;-80
2023/06/20 11:10:20;;;;;;;9.80;6.75;;;;;;;;;;5028085;28;20100;-79
2023/06/20 11:12:47;;;;;;;8.55;6.85;;;;;;;;;;5026872;28;20132;-78
2023/06/20 11:15:24;;;;;;;9.20;7.03;;;;;;;;;;5029262;28;20144;-78
2023/06/20 11:17:51;;;;;;;9.63;6.72;;;;;;;;;;5029004;28;20041;-78
2023/06/20 11:20:19;;;;;;;8.00;6.28;;;;;;;;;;5027428;28;20056;-79
2023/06/20 11:22:49;;;;;;;7.10;6.13;;;;;;;;;;5028601;28;20049;-79
2023/06/20 11:25:22;;;;;;;9.98;6.00;;;;;;;;;;5026502;28;20050;-79
2023/06/20 11:27:49;;;;;;;8.50;6.13;;;;;;;;;;5028359;28;20045;-79
2023/06/20 11:30:16;;;;;;;9.55;6.75;;;;;;;;;;5028040;28;20049;-79
2023/06/20 11:33:02;;;;;;;7.60;5.90;;;;;;;;;;5027726;28;20041;-79
2023/06/20 11:35:39;;;;;;;11.13;6.38;;;;;;;;;;5028709;28;20500;-79
2023/06/20 11:38:06;;;;;;;11.63;6.50;;;;;;;;;;5028345;28;20049;-79
2023/06/20 11:40:32;;;;;;;9.50;6.60;;;;;;;;;;5028221;28;20136;-79
2023/06/20 11:42:59;;;;;;;8.40;6.18;;;;;;;;;;5027297;28;20047;-78
2023/06/20 11:45:26;;;;;;;8.82;6.35;;;;;;;;;;5044101;28;20041;-78
2023/06/20 11:48:06;;;;;;;8.70;6.57;;;;;;;;;;5042202;28;20037;-79
2023/06/20 11:50:33;;;;;;;11.25;6.32;;;;;;;;;;5050989;28;20038;-78
2023/06/20 11:53:01;;;;;;;11.65;6.70;;;;;;;;;;5047870;28;20034;-80
2023/06/20 11:55:46;;;;;;;11.45;7.47;;;;;;;;;;5028052;28;20639;-80
2023/06/20 11:58:13;;;;;;;15.10;7.68;;;;;;;;;;5018706;28;20076;-80
2023/06/20 12:00:40;;;;;;;10.00;7.18;;;;;;;;;;5028219;28;20045;-79
2023/06/20 12:03:10;;;;;;;10.70;7.30;;;;;;;;;;5029363;28;20132;-79
2023/06/20 12:05:37;;;;;;;9.20;6.72;;;;;;;;;;5030168;28;20033;-78
2023/06/20 12:08:04;;;;;;;13.50;6.55;;;;;;;;;;5032963;28;20049;-79
2023/06/20 12:10:31;;;;;;;11.27;7.00;;;;;;;;;;5031597;28;20037;-79
2023/06/20 12:13:01;;;;;;;9.15;7.43;;;;;;;;;;5030863;28;20045;-79
2023/06/20 12:15:28;;;;;;;13.90;6.95;;;;;;;;;;5031712;28;20534;-79
2023/06/20 12:17:54;;;;;;;10.15;6.35;;;;;;;;;;5031239;28;20439;-79
2023/06/20 12:20:22;;;;;;;7.03;5.93;;;;;;;;;;5033720;28;20467;-79
2023/06/20 12:23:00;;;;;;;8.57;6.72;;;;;;;;;;5033640;28;20307;-79
2023/06/20 12:25:27;;;;;;;8.32;5.93;;;;;;;;;;5031275;28;20563;-80
2023/06/20 12:27:54;;;;;;;9.07;6.20;;;;;;;;;;5032871;28;20121;-79
2023/06/20 12:30:20;;;;;;;9.93;6.93;;;;;;;;;;5031272;28;20050;-80
2023/06/20 12:32:47;;;;;;;10.23;6.25;;;;;;;;;;5033853;28;20041;-79
2023/06/20 12:35:14;;;;;;;9.02;5.93;;;;;;;;;;5039964;28;20521;-78
2023/06/20 12:37:40;;;;;;;8.55;6.28;;;;;;;;;;5032328;28;20500;-80
2023/06/20 12:40:09;;;;;;;8.95;6.32;;;;;;;;;;5032439;28;20041;-79
2023/06/20 12:42:36;;;;;;;9.73;6.50;;;;;;;;;;5030796;28;20061;-78
2023/06/20 12:45:04;;;;;;;7.82;6.65;;;;;;;;;;5033260;28;20700;-80
2023/06/20 12:47:31;;;;;;;10.00;6.68;;;;;;;;;;5038706;28;20052;-79
2023/06/20 12:50:01;;;;;;;11.77;5.78;;;;;;;;;;5041631;28;20046;-79
2023/06/20 12:52:29;;;;;;;8.52;6.32;;;;;;;;;;5036134;28;20057;-78
2023/06/20 12:54:57;;;;;;;9.50;6.32;;;;;;;;;;5053345;28;20041;-80
2023/06/20 12:57:25;;;;;;;12.93;6.07;;;;;;;;;;5034506;28;20064;-79
2023/06/20 12:59:52;;;;;;;6.95;6.25;;;;;;;;;;5031641;28;20049;-79
2023/06/20 13:02:21;;;;;;;6.85;6.00;;;;;;;;;;5033227;28;20517;-79
2023/06/20 13:04:49;;;;;;;7.60;6.10;;;;;;;;;;5032907;28;20144;-78
2023/06/20 13:07:17;;;;;;;11.13;6.10;;;;;;;;;;5031452;28;20073;-79
2023/06/20 13:09:45;;;;;;;9.90;6.70;;;;;;;;;;5031331;28;20103;-78
2023/06/20 13:12:11;;;;;;;8.93;6.80;;;;;;;;;;5027762;28;20475;-78
2023/06/20 13:14:38;;;;;;;7.28;6.55;;;;;;;;;;5031413;28;20050;-79
2023/06/20 13:17:11;;;;;;;13.68;7.60;;;;;;;;;;5031239;28;20069;-79
2023/06/20 13:19:38;;;;;;;10.50;7.00;;;;;;;;;;5030376;28;20041;-80
2023/06/20 13:22:04;;;;;;;9.52;7.03;;;;;;;;;;5030964;28;20046;-80
2023/06/20 13:24:31;;;;;;;11.50;7.55;;;;;;;;;;5030371;28;20041;-79
2023/06/20 13:27:01;;;;;;;8.57;6.88;;;;;;;;;;5022076;28;20030;-79
2023/06/20 13:29:28;;;;;;;7.93;7.13;;;;;;;;;;5004817;28;20037;-80
2023/06/20 13:31:54;;;;;;;11.15;7.32;;;;;;;;;;5047380;28;20056;-78
2023/06/20 13:34:21;;;;;;;10.05;7.13;;;;;;;;;;5032157;28;20057;-79
2023/06/20 13:36:47;;;;;;;8.65;7.57;;;;;;;;;;5020813;28;20340;-78
2023/06/20 13:39:14;;;;;;;9.27;7.68;;;;;;;;;;5015288;28;20046;-78
2023/06/20 13:41:40;;;;;;;7.90;7.10;;;;;;;;;;5033968;28;20053;-79
2023/06/20 13:44:07;;;;;;;9.82;7.20;;;;;;;;;;5032197;28;20061;-78
2023/06/20 13:46:33;;;;;;;8.63;7.07;;;;;;;;;;5022912;28;20049;-79
2023/06/20 13:49:01;;;;;;;13.18;6.43;;;;;;;;;;5012220;28;20514;-77
2023/06/20 13:51:28;;;;;;;9.75;6.72;;;;;;;;;;5028529;28;20046;-78
2023/06/20 13:53:55;;;;;;;8.30;6.72;;;;;;;;;;5027452;28;20046;-79
2023/06/20 13:56:24;;;;;;;12.00;6.95;;;;;;;;;;5015107;28;20107;-78
2023/06/20 13:58:52;;;;;;;10.20;6.78;;;;;;;;;;5029241;28;20051;-79
2023/06/20 14:01:18;;;;;;;9.70;6.82;;;;;;;;;;5031256;28;20047;-78
2023/06/20 14:03:45;;;;;;;9.90;6.80;;;;;;;;;;5027998;28;20519;-77
2023/06/20 14:06:11;;;;;;;10.52;6.63;;;;;;;;;;5027577;28;20079;-78
2023/06/20 14:08:38;;;;;;;8.90;6.55;;;;;;;;;;5028280;28;20053;-78
2023/06/20 14:11:05;;;;;;;12.60;7.25;;;;;;;;;;5027339;28;20129;-79
2023/06/20 14:13:31;;;;;;;9.10;7.47;;;;;;;;;;5029007;28;20133;-78
2023/06/20 14:15:58;;;;;;;9.88;6.65;;;;;;;;;;5026636;28;20049;-77
2023/06/20 14:18:25;;;;;;;11.20;6.43;;;;;;;;;;5030115;28;20575;-80
2023/06/20 14:20:51;;;;;;;8.88;6.88;;;;;;;;;;5013821;28;20061;-79
2023/06/20 14:23:18;;;;;;;10.50;7.38;;;;;;;;;;5029217;28;20111;-80
2023/06/20 14:25:45;;;;;;;8.68;7.43;;;;;;;;;;5028826;28;20045;-80
2023/06/20 14:28:15;;;;;;;7.38;6.65;;;;;;;;;;5031817;28;20065;-80
2023/06/20 14:30:46;;;;;;;8.18;7.22;;;;;;;;;;5051612;28;20103;-79
2023/06/20 14:33:13;;;;;;;8.52;7.13;;;;;;;;;;5027678;28;20108;-79
2023/06/20 14:35:41;;;;;;;11.27;7.30;;;;;;;;;;5028713;28;20108;-81
2023/06/20 14:38:07;;;;;;;10.30;7.40;;;;;;;;;;5031728;28;20072;-79
2023/06/20 14:40:34;;;;;;;12.20;7.82;;;;;;;;;;5047609;28;20041;-78
2023/06/20 14:43:01;;;;;;;12.07;7.18;;;;;;;;;;5031477;28;20049;-79
2023/06/20 14:45:27;;;;;;;9.23;7.28;;;;;;;;;;5031667;28;20053;-78
2023/06/20 14:47:54;;;;;;;12.93;7.35;;;;;;;;;;5016742;28;20136;-79
2023/06/20 14:50:24;;;;;;;8.27;7.03;;;;;;;;;;5032534;28;20108;-79
2023/06/20 14:53:11;;;;;;;9.18;6.97;;;;;;;;;;5029995;28;20405;-79
2023/06/20 14:55:37;;;;;;;8.25;6.93;;;;;;;;;;5030615;28;20145;-79
2023/06/20 14:58:04;;;;;;;9.23;7.18;;;;;;;;;;5029059;28;20076;-78
2023/06/20 15:00:30;;;;;;;11.10;7.45;;;;;;;;;;5029211;28;20046;-78
2023/06/20 15:02:57;;;;;;;10.43;7.22;;;;;;;;;;5029408;28;20099;-80
2023/06/20 15:05:24;;;;;;;10.00;7.82;;;;;;;;;;5023610;28;20046;-80
2023/06/20 15:07:51;;;;;;;8.30;7.18;;;;;;;;;;5006963;28;20040;-79
2023/06/20 15:10:18;;;;;;;12.20;7.28;;;;;;;;;;5025530;28;20072;-79
2023/06/20 15:12:44;;;;;;;9.02;7.57;;;;;;;;;;5027025;28;20045;-78
2023/06/20 15:15:11;;;;;;;9.23;7.30;;;;;;;;;;5027714;28;20464;-78
2023/06/20 15:17:38;;;;;;;9.88;7.63;;;;;;;;;;5044822;28;20099;-78
2023/06/20 15:20:05;;;;;;;13.88;8.32;;;;;;;;;;5028582;28;20045;-79
2023/06/20 15:22:32;;;;;;;10.77;7.57;;;;;;;;;;5031867;28;20075;-79
2023/06/20 15:24:59;;;;;;;9.95;7.40;;;;;;;;;;5033218;28;20425;-79
2023/06/20 15:27:26;;;;;;;12.40;7.88;;;;;;;;;;5029834;28;20512;-78
2023/06/20 15:29:52;;;;;;;9.35;7.57;;;;;;;;;;5029432;28;20115;-78
2023/06/20 15:32:19;;;;;;;12.60;7.93;;;;;;;;;;5028464;28;21052;-78
2023/06/20 15:34:45;;;;;;;14.88;7.90;;;;;;;;;;5028946;28;20049;-77
2023/06/20 15:37:13;;;;;;;9.73;7.70;;;;;;;;;;5029216;28;20080;-78
2023/06/20 15:39:40;;;;;;;11.05;7.70;;;;;;;;;;5028152;28;20492;-79
2023/06/20 15:42:06;;;;;;;11.13;7.60;;;;;;;;;;5031538;28;20052;-78
2023/06/20 15:44:34;;;;;;;9.23;7.63;;;;;;;;;;5030112;28;20073;-79
2023/06/20 15:47:01;;;;;;;10.48;7.65;;;;;;;;;;5040349;28;20054;-77
2023/06/20 15:49:29;;;;;;;11.20;7.78;;;;;;;;;;5027975;28;20052;-78
2023/06/20 15:51:56;;;;;;;9.07;7.75;;;;;;;;;;5017584;28;20049;-78
2023/06/20 15:54:23;;;;;;;9.63;7.53;;;;;;;;;;5025542;28;20140;-79
2023/06/20 15:56:49;;;;;;;10.77;7.80;;;;;;;;;;5036107;28;20061;-78
2023/06/20 15:59:16;;;;;;;10.27;8.35;;;;;;;;;;5044356;28;20045;-78
2023/06/20 16:01:43;;;;;;;11.13;7.75;;;;;;;;;;5048980;28;20046;-78
2023/06/20 16:04:10;;;;;;;13.43;7.72;;;;;;;;;;5038410;28;20128;-79
2023/06/20 16:06:36;;;;;;;10.68;7.93;;;;;;;;;;5032058;28;20140;-80
2023/06/20 16:09:03;;;;;;;12.10;7.50;;;;;;;;;;5030185;28;20408;-79
2023/06/20 16:11:29;;;;;;;10.98;7.38;;;;;;;;;;5034668;28;20451;-78
2023/06/20 16:13:56;;;;;;;8.60;7.10;;;;;;;;;;5039468;28;20046;-78
2023/06/20 16:16:23;;;;;;;10.52;7.82;;;;;;;;;;5055004;28;20099;-79
2023/06/20 16:18:51;;;;;;;13.32;7.93;;;;;;;;;;5040310;28;20061;-80
2023/06/20 16:21:18;;;;;;;12.60;8.20;;;;;;;;;;5040177;28;20079;-78
2023/06/20 16:23:45;;;;;;;12.38;8.65;;;;;;;;;;5028377;28;20141;-79
2023/06/20 16:26:12;;;;;;;11.20;7.68;;;;;;;;;;5032397;28;20056;-77
2023/06/20 16:28:39;;;;;;;13.23;7.55;;;;;;;;;;5039072;28;20045;-77
2023/06/20 16:31:05;;;;;;;11.13;7.45;;;;;;;;;;5063433;28;20123;-79
2023/06/20 16:33:32;;;;;;;11.50;7.72;;;;;;;;;;5061089;28;20498;-79
2023/06/20 16:36:16;;;;;;;11.63;7.53;;;;;;;;;;5041706;28;20048;-80
2023/06/20 16:38:42;;;;;;;10.85;8.10;;;;;;;;;;5050585;28;20063;-82
2023/06/20 16:41:09;;;;;;;11.63;7.70;;;;;;;;;;5041251;28;20052;-82
2023/06/20 16:43:36;;;;;;;9.75;7.88;;;;;;;;;;5034520;28;20049;-81
2023/06/20 16:46:04;;;;;;;10.02;8.35;;;;;;;;;;5039744;28;20102;-81
2023/06/20 16:48:30;;;;;;;17.83;8.10;;;;;;;;;;5050429;28;20624;-80
2023/06/20 16:50:57;;;;;;;13.60;7.72;;;;;;;;;;5038973;28;20069;-82
2023/06/20 16:53:23;;;;;;;11.10;8.23;;;;;;;;;;5064248;28;20141;-82
2023/06/20 16:55:50;;;;;;;11.07;7.68;;;;;;;;;;5040491;28;20105;-80
2023/06/20 16:58:17;;;;;;;15.43;7.95;;;;;;;;;;5081081;28;20045;-82
2023/06/20 17:00:43;;;;;;;11.75;8.13;;;;;;;;;;5052783;28;20159;-82
2023/06/20 17:03:12;;;;;;;11.25;8.25;;;;;;;;;;5053808;28;20073;-81
2023/06/20 17:05:38;;;;;;;11.40;8.02;;;;;;;;;;5036689;28;20033;-81
2023/06/20 17:08:07;;;;;;;12.13;7.43;;;;;;;;;;5054522;28;20037;-80
2023/06/20 17:10:33;;;;;;;12.85;7.35;;;;;;;;;;5047248;28;20458;-81
2023/06/20 17:13:00;;;;;;;15.73;8.32;;;;;;;;;;5043932;28;20065;-82
2023/06/20 17:15:26;;;;;;;11.98;8.35;;;;;;;;;;5053042;28;20505;-81
2023/06/20 17:17:55;;;;;;;9.35;7.93;;;;;;;;;;5041009;28;20045;-83
2023/06/20 17:20:22;;;;;;;11.85;8.25;;;;;;;;;;5052346;28;20053;-84
2023/06/20 17:22:49;;;;;;;9.70;8.35;;;;;;;;;;5038155;28;20128;-80
2023/06/20 17:25:16;;;;;;;15.30;8.85;;;;;;;;;;5033898;28;20088;-81
2023/06/20 17:27:43;;;;;;;9.15;7.78;;;;;;;;;;5052113;28;20056;-82
2023/06/20 17:30:09;;;;;;;13.52;8.60;;;;;;;;;;5060485;28;20045;-83
2023/06/20 17:32:39;;;;;;;13.38;8.45;;;;;;;;;;5057382;28;20045;-83
2023/06/20 17:35:09;;;;;;;15.23;9.05;;;;;;;;;;5056176;28;21551;-83
2023/06/20 17:37:38;;;;;;;11.02;8.48;;;;;;;;;;5049118;28;20076;-81
2023/06/20 17:40:08;;;;;;;16.02;8.40;;;;;;;;;;5050303;28;20045;-82
2023/06/20 17:42:35;;;;;;;10.80;8.85;;;;;;;;;;5050931;28;20057;-83
2023/06/20 17:45:03;;;;;;;13.40;8.15;;;;;;;;;;5048986;28;20059;-83
2023/06/20 17:47:30;;;;;;;10.30;8.25;;;;;;;;;;5040518;28;20080;-82
2023/06/20 17:49:56;;;;;;;13.35;9.32;;;;;;;;;;5027000;28;20056;-83
2023/06/20 17:52:23;;;;;;;13.40;9.27;;;;;;;;;;5049363;28;20081;-84
2023/06/20 17:54:52;;;;;;;12.40;9.32;;;;;;;;;;5047815;28;20044;-84
2023/06/20 17:57:19;;;;;;;11.90;10.00;;;;;;;;;;5053111;28;20450;-82
2023/06/20 17:59:46;;;;;;;16.33;10.13;;;;;;;;;;5072600;28;20056;-82
2023/06/20 18:02:13;;;;;;;13.48;9.02;;;;;;;;;;5050221;28;20078;-82
2023/06/20 18:04:40;;;;;;;13.60;8.77;;;;;;;;;;5051444;28;20067;-83
2023/06/20 18:07:07;;;;;;;11.50;9.57;;;;;;;;;;5045155;28;20055;-83
2023/06/20 18:09:33;;;;;;;14.35;9.40;;;;;;;;;;5051119;28;20064;-83
2023/06/20 18:12:00;;;;;;;12.70;9.80;;;;;;;;;;5049185;28;20065;-83
2023/06/20 18:14:27;;;;;;;15.05;10.25;;;;;;;;;;5054659;28;20049;-82
2023/06/20 18:16:54;;;;;;;11.88;9.45;;;;;;;;;;5059314;28;20045;-80
2023/06/20 18:19:22;;;;;;;13.85;9.95;;;;;;;;;;5055682;28;20052;-84
2023/06/20 18:21:48;;;;;;;14.20;10.07;;;;;;;;;;5051777;28;20061;-85
2023/06/20 18:24:16;;;;;;;14.05;10.32;;;;;;;;;;5054963;28;20048;-82
2023/06/20 18:26:43;;;;;;;16.33;10.48;;;;;;;;;;5046198;28;20101;-82
2023/06/20 18:29:10;;;;;;;17.40;9.98;;;;;;;;;;5049711;28;20060;-82
2023/06/20 18:31:36;;;;;;;15.95;10.45;;;;;;;;;;5052986;28;20045;-82
2023/06/20 18:34:04;;;;;;;14.82;9.70;;;;;;;;;;5048633;28;20051;-81
2023/06/20 18:36:32;;;;;;;15.10;10.70;;;;;;;;;;5063256;28;20045;-80
2023/06/20 18:38:59;;;;;;;13.48;10.27;;;;;;;;;;5046744;28;20067;-83
2023/06/20 18:41:25;;;;;;;13.88;10.40;;;;;;;;;;5038625;28;20095;-83
2023/06/20 18:43:52;;;;;;;15.93;10.30;;;;;;;;;;5045869;28;20107;-81
2023/06/20 18:46:19;;;;;;;13.25;10.40;;;;;;;;;;5046760;28;20127;-83
2023/06/20 18:48:46;;;;;;;13.27;9.88;;;;;;;;;;5063625;28;20042;-83
2023/06/20 18:51:15;;;;;;;14.63;10.10;;;;;;;;;;5071534;28;20052;-84
2023/06/20 18:53:42;;;;;;;15.10;10.68;;;;;;;;;;5059611;28;20053;-81
2023/06/20 18:56:09;;;;;;;13.57;10.40;;;;;;;;;;5059827;28;20075;-80
2023/06/20 18:58:35;;;;;;;19.10;10.90;;;;;;;;;;5058691;28;20352;-79
2023/06/20 19:01:03;;;;;;;15.10;10.98;;;;;;;;;;5052264;28;20049;-80
2023/06/20 19:03:30;;;;;;;16.52;11.07;;;;;;;;;;5055396;28;20064;-80
2023/06/20 19:05:56;;;;;;;14.60;11.45;;;;;;;;;;5059196;28;20494;-80
2023/06/20 19:08:23;;;;;;;15.15;10.65;;;;;;;;;;5053942;28;20043;-80
2023/06/20 19:10:50;;;;;;;20.08;11.82;;;;;;;;;;5057602;28;20049;-81